sensor_id;sensor_type;location;lat;lon;timestamp;P1;durP1;ratioP1;P2;durP2;ratioP2
43457;SDS011;29046;54.184;18.680;2022-12-07T00:00:22;25.75;;;12.95;;
43457;SDS011;29046;54.184;18.680;2022-12-07T00:03:14;29.48;;;13.00;;
43457;SDS011;29046;54.184;18.680;2022-12-07T00:05:58;27.20;;;12.10;;
43457;SDS011;29046;54.184;18.680;2022-12-07T00:08:46;27.88;;;12.25;;
43457;SDS011;29046;54.184;18.680;2022-12-07T00:11:27;25.50;;;11.07;;
43457;SDS011;29046;54.184;18.680;2022-12-07T00:14:15;27.52;;;11.02;;
43457;SDS011;29046;54.184;18.680;2022-12-07T00:16:50;30.48;;;12.35;;
43457;SDS011;29046;54.184;18.680;2022-12-07T00:19:37;31.10;;;11.90;;
43457;SDS011;29046;54.184;18.680;2022-12-07T00:22:12;33.35;;;13.57;;
43457;SDS011;29046;54.184;18.680;2022-12-07T00:24:59;23.60;;;10.85;;
43457;SDS011;29046;54.184;18.680;2022-12-07T00:27:40;18.90;;;5.97;;
43457;SDS011;29046;54.184;18.680;2022-12-07T00:30:21;23.73;;;10.10;;
43457;SDS011;29046;54.184;18.680;2022-12-07T00:33:02;25.08;;;9.52;;
43457;SDS011;29046;54.184;18.680;2022-12-07T00:35:54;24.08;;;10.88;;
43457;SDS011;29046;54.184;18.680;2022-12-07T00:38:35;25.83;;;11.18;;
43457;SDS011;29046;54.184;18.680;2022-12-07T00:41:20;27.70;;;13.45;;
43457;SDS011;29046;54.184;18.680;2022-12-07T00:44:02;23.63;;;10.80;;
43457;SDS011;29046;54.184;18.680;2022-12-07T00:46:42;26.42;;;11.43;;
43457;SDS011;29046;54.184;18.680;2022-12-07T00:49:25;23.35;;;8.90;;
43457;SDS011;29046;54.184;18.680;2022-12-07T00:52:05;27.13;;;11.45;;
43457;SDS011;29046;54.184;18.680;2022-12-07T00:54:46;20.25;;;9.45;;
43457;SDS011;29046;54.184;18.680;2022-12-07T00:57:26;27.20;;;12.18;;
43457;SDS011;29046;54.184;18.680;2022-12-07T01:00:07;30.30;;;11.43;;
43457;SDS011;29046;54.184;18.680;2022-12-07T01:02:54;23.02;;;8.13;;
43457;SDS011;29046;54.184;18.680;2022-12-07T01:05:35;19.90;;;7.28;;
43457;SDS011;29046;54.184;18.680;2022-12-07T01:08:15;19.67;;;9.68;;
43457;SDS011;29046;54.184;18.680;2022-12-07T01:11:00;29.23;;;10.85;;
43457;SDS011;29046;54.184;18.680;2022-12-07T01:13:49;32.95;;;11.80;;
43457;SDS011;29046;54.184;18.680;2022-12-07T01:16:31;31.50;;;12.38;;
43457;SDS011;29046;54.184;18.680;2022-12-07T01:19:18;18.30;;;7.25;;
43457;SDS011;29046;54.184;18.680;2022-12-07T01:21:53;17.95;;;7.95;;
43457;SDS011;29046;54.184;18.680;2022-12-07T01:24:40;13.25;;;6.70;;
43457;SDS011;29046;54.184;18.680;2022-12-07T01:27:15;30.25;;;14.27;;
43457;SDS011;29046;54.184;18.680;2022-12-07T01:30:03;22.60;;;11.88;;
43457;SDS011;29046;54.184;18.680;2022-12-07T01:32:38;22.23;;;9.60;;
43457;SDS011;29046;54.184;18.680;2022-12-07T01:35:12;25.42;;;9.52;;
43457;SDS011;29046;54.184;18.680;2022-12-07T01:37:59;24.50;;;9.10;;
43457;SDS011;29046;54.184;18.680;2022-12-07T01:40:40;24.20;;;10.20;;
43457;SDS011;29046;54.184;18.680;2022-12-07T01:43:21;20.40;;;9.98;;
43457;SDS011;29046;54.184;18.680;2022-12-07T01:46:03;28.40;;;10.95;;
43457;SDS011;29046;54.184;18.680;2022-12-07T01:48:58;24.75;;;10.73;;
43457;SDS011;29046;54.184;18.680;2022-12-07T01:51:54;24.27;;;10.43;;
43457;SDS011;29046;54.184;18.680;2022-12-07T01:54:51;23.90;;;10.75;;
43457;SDS011;29046;54.184;18.680;2022-12-07T01:57:26;19.20;;;8.02;;
43457;SDS011;29046;54.184;18.680;2022-12-07T02:00:14;21.27;;;9.63;;
43457;SDS011;29046;54.184;18.680;2022-12-07T02:02:53;30.35;;;10.55;;
43457;SDS011;29046;54.184;18.680;2022-12-07T02:05:49;17.75;;;7.22;;
43457;SDS011;29046;54.184;18.680;2022-12-07T02:08:44;16.50;;;8.15;;
43457;SDS011;29046;54.184;18.680;2022-12-07T02:11:19;23.60;;;10.45;;
43457;SDS011;29046;54.184;18.680;2022-12-07T02:14:07;24.73;;;11.10;;
43457;SDS011;29046;54.184;18.680;2022-12-07T02:16:53;19.25;;;10.35;;
43457;SDS011;29046;54.184;18.680;2022-12-07T02:25:42;19.38;;;9.93;;
43457;SDS011;29046;54.184;18.680;2022-12-07T02:31:15;21.73;;;9.65;;
43457;SDS011;29046;54.184;18.680;2022-12-07T02:33:57;23.45;;;10.73;;
43457;SDS011;29046;54.184;18.680;2022-12-07T02:36:58;31.67;;;13.23;;
43457;SDS011;29046;54.184;18.680;2022-12-07T02:39:38;28.65;;;12.25;;
43457;SDS011;29046;54.184;18.680;2022-12-07T02:42:32;11.90;;;5.80;;
43457;SDS011;29046;54.184;18.680;2022-12-07T02:45:12;19.60;;;7.50;;
43457;SDS011;29046;54.184;18.680;2022-12-07T02:48:00;28.90;;;10.52;;
43457;SDS011;29046;54.184;18.680;2022-12-07T02:50:50;13.18;;;4.95;;
43457;SDS011;29046;54.184;18.680;2022-12-07T02:53:39;20.70;;;7.80;;
43457;SDS011;29046;54.184;18.680;2022-12-07T03:05:13;11.52;;;6.43;;
43457;SDS011;29046;54.184;18.680;2022-12-07T03:10:50;24.77;;;10.38;;
43457;SDS011;29046;54.184;18.680;2022-12-07T03:13:37;20.65;;;9.75;;
43457;SDS011;29046;54.184;18.680;2022-12-07T03:16:30;13.38;;;6.15;;
43457;SDS011;29046;54.184;18.680;2022-12-07T03:19:13;17.73;;;9.27;;
43457;SDS011;29046;54.184;18.680;2022-12-07T03:22:08;21.17;;;8.75;;
43457;SDS011;29046;54.184;18.680;2022-12-07T03:24:54;15.43;;;6.82;;
43457;SDS011;29046;54.184;18.680;2022-12-07T03:27:37;21.20;;;8.90;;
43457;SDS011;29046;54.184;18.680;2022-12-07T03:30:30;8.32;;;5.03;;
43457;SDS011;29046;54.184;18.680;2022-12-07T03:33:23;10.73;;;4.60;;
43457;SDS011;29046;54.184;18.680;2022-12-07T03:36:12;6.82;;;2.97;;
43457;SDS011;29046;54.184;18.680;2022-12-07T03:39:11;6.82;;;4.60;;
43457;SDS011;29046;54.184;18.680;2022-12-07T03:41:52;4.43;;;2.67;;
43457;SDS011;29046;54.184;18.680;2022-12-07T03:44:40;13.68;;;3.63;;
43457;SDS011;29046;54.184;18.680;2022-12-07T03:47:32;8.07;;;4.68;;
43457;SDS011;29046;54.184;18.680;2022-12-07T03:56:20;7.63;;;3.85;;
43457;SDS011;29046;54.184;18.680;2022-12-07T03:59:01;4.60;;;2.63;;
43457;SDS011;29046;54.184;18.680;2022-12-07T04:01:42;5.70;;;3.03;;
43457;SDS011;29046;54.184;18.680;2022-12-07T04:04:24;5.88;;;3.47;;
43457;SDS011;29046;54.184;18.680;2022-12-07T04:07:11;7.15;;;2.95;;
43457;SDS011;29046;54.184;18.680;2022-12-07T04:09:52;7.22;;;3.90;;
43457;SDS011;29046;54.184;18.680;2022-12-07T04:12:32;5.38;;;3.13;;
43457;SDS011;29046;54.184;18.680;2022-12-07T04:15:13;5.65;;;3.08;;
43457;SDS011;29046;54.184;18.680;2022-12-07T04:17:53;9.10;;;4.47;;
43457;SDS011;29046;54.184;18.680;2022-12-07T04:20:35;4.68;;;2.70;;
43457;SDS011;29046;54.184;18.680;2022-12-07T04:23:15;4.80;;;1.90;;
43457;SDS011;29046;54.184;18.680;2022-12-07T04:25:56;6.22;;;2.63;;
43457;SDS011;29046;54.184;18.680;2022-12-07T04:28:36;4.30;;;2.28;;
43457;SDS011;29046;54.184;18.680;2022-12-07T04:31:17;4.35;;;2.13;;
43457;SDS011;29046;54.184;18.680;2022-12-07T04:34:05;5.68;;;2.53;;
43457;SDS011;29046;54.184;18.680;2022-12-07T04:36:47;2.78;;;1.50;;
43457;SDS011;29046;54.184;18.680;2022-12-07T04:39:29;3.47;;;2.28;;
43457;SDS011;29046;54.184;18.680;2022-12-07T04:42:10;2.90;;;1.65;;
43457;SDS011;29046;54.184;18.680;2022-12-07T04:44:50;2.92;;;1.35;;
43457;SDS011;29046;54.184;18.680;2022-12-07T04:47:32;6.22;;;2.75;;
43457;SDS011;29046;54.184;18.680;2022-12-07T04:50:12;5.28;;;2.90;;
43457;SDS011;29046;54.184;18.680;2022-12-07T04:52:53;6.00;;;2.25;;
43457;SDS011;29046;54.184;18.680;2022-12-07T04:55:41;5.20;;;2.35;;
43457;SDS011;29046;54.184;18.680;2022-12-07T04:58:15;4.78;;;2.28;;
43457;SDS011;29046;54.184;18.680;2022-12-07T05:01:03;7.05;;;4.13;;
43457;SDS011;29046;54.184;18.680;2022-12-07T05:03:37;8.75;;;2.90;;
43457;SDS011;29046;54.184;18.680;2022-12-07T05:06:24;7.63;;;3.05;;
43457;SDS011;29046;54.184;18.680;2022-12-07T05:09:06;2.88;;;1.52;;
43457;SDS011;29046;54.184;18.680;2022-12-07T05:11:53;7.18;;;3.00;;
43457;SDS011;29046;54.184;18.680;2022-12-07T05:14:34;4.95;;;1.95;;
43457;SDS011;29046;54.184;18.680;2022-12-07T05:17:21;5.82;;;2.28;;
43457;SDS011;29046;54.184;18.680;2022-12-07T05:20:02;6.93;;;3.13;;
43457;SDS011;29046;54.184;18.680;2022-12-07T05:22:49;4.57;;;2.72;;
43457;SDS011;29046;54.184;18.680;2022-12-07T05:25:24;2.13;;;1.45;;
43457;SDS011;29046;54.184;18.680;2022-12-07T05:28:11;15.48;;;5.30;;
43457;SDS011;29046;54.184;18.680;2022-12-07T05:30:46;10.85;;;4.88;;
43457;SDS011;29046;54.184;18.680;2022-12-07T05:33:33;6.63;;;2.70;;
43457;SDS011;29046;54.184;18.680;2022-12-07T05:36:08;8.50;;;4.57;;
43457;SDS011;29046;54.184;18.680;2022-12-07T05:38:55;10.02;;;3.88;;
43457;SDS011;29046;54.184;18.680;2022-12-07T05:41:30;2.20;;;1.58;;
43457;SDS011;29046;54.184;18.680;2022-12-07T05:44:35;3.33;;;2.17;;
43457;SDS011;29046;54.184;18.680;2022-12-07T05:47:14;11.20;;;3.53;;
43457;SDS011;29046;54.184;18.680;2022-12-07T05:50:02;7.68;;;3.55;;
43457;SDS011;29046;54.184;18.680;2022-12-07T05:52:43;3.17;;;2.10;;
43457;SDS011;29046;54.184;18.680;2022-12-07T05:55:23;6.00;;;4.53;;
43457;SDS011;29046;54.184;18.680;2022-12-07T05:58:04;5.28;;;2.63;;
43457;SDS011;29046;54.184;18.680;2022-12-07T06:01:09;2.70;;;1.80;;
43457;SDS011;29046;54.184;18.680;2022-12-07T06:03:50;4.43;;;2.58;;
43457;SDS011;29046;54.184;18.680;2022-12-07T06:06:30;4.18;;;2.20;;
43457;SDS011;29046;54.184;18.680;2022-12-07T06:09:12;6.20;;;3.42;;
43457;SDS011;29046;54.184;18.680;2022-12-07T06:11:53;5.93;;;4.60;;
43457;SDS011;29046;54.184;18.680;2022-12-07T06:14:53;9.63;;;4.45;;
43457;SDS011;29046;54.184;18.680;2022-12-07T06:17:40;7.22;;;4.35;;
43457;SDS011;29046;54.184;18.680;2022-12-07T06:20:21;6.57;;;3.83;;
43457;SDS011;29046;54.184;18.680;2022-12-07T06:23:01;9.90;;;5.10;;
43457;SDS011;29046;54.184;18.680;2022-12-07T06:25:45;9.27;;;4.65;;
43457;SDS011;29046;54.184;18.680;2022-12-07T06:28:24;3.15;;;1.52;;
43457;SDS011;29046;54.184;18.680;2022-12-07T06:31:05;8.77;;;4.25;;
43457;SDS011;29046;54.184;18.680;2022-12-07T06:33:57;7.88;;;2.40;;
43457;SDS011;29046;54.184;18.680;2022-12-07T06:36:31;8.40;;;4.40;;
43457;SDS011;29046;54.184;18.680;2022-12-07T06:39:19;6.63;;;3.20;;
43457;SDS011;29046;54.184;18.680;2022-12-07T06:41:58;18.25;;;7.20;;
43457;SDS011;29046;54.184;18.680;2022-12-07T06:44:46;15.10;;;7.45;;
43457;SDS011;29046;54.184;18.680;2022-12-07T06:47:27;36.17;;;20.08;;
43457;SDS011;29046;54.184;18.680;2022-12-07T06:50:18;14.68;;;4.30;;
43457;SDS011;29046;54.184;18.680;2022-12-07T06:52:53;19.48;;;5.05;;
43457;SDS011;29046;54.184;18.680;2022-12-07T06:55:40;45.90;;;12.00;;
43457;SDS011;29046;54.184;18.680;2022-12-07T06:58:22;11.82;;;4.32;;
43457;SDS011;29046;54.184;18.680;2022-12-07T07:01:03;20.17;;;6.20;;
43457;SDS011;29046;54.184;18.680;2022-12-07T07:03:48;19.60;;;4.97;;
43457;SDS011;29046;54.184;18.680;2022-12-07T07:06:35;9.70;;;3.28;;
43457;SDS011;29046;54.184;18.680;2022-12-07T07:09:10;9.43;;;2.45;;
43457;SDS011;29046;54.184;18.680;2022-12-07T07:11:58;7.63;;;3.30;;
43457;SDS011;29046;54.184;18.680;2022-12-07T07:14:32;3.67;;;1.70;;
43457;SDS011;29046;54.184;18.680;2022-12-07T07:17:19;6.78;;;2.65;;
43457;SDS011;29046;54.184;18.680;2022-12-07T07:20:01;7.97;;;2.95;;
43457;SDS011;29046;54.184;18.680;2022-12-07T07:22:41;4.43;;;2.30;;
43457;SDS011;29046;54.184;18.680;2022-12-07T07:25:22;1.63;;;0.75;;
43457;SDS011;29046;54.184;18.680;2022-12-07T07:28:03;2.38;;;1.45;;
43457;SDS011;29046;54.184;18.680;2022-12-07T07:30:44;1.67;;;0.70;;
43457;SDS011;29046;54.184;18.680;2022-12-07T07:33:24;3.67;;;1.98;;
43457;SDS011;29046;54.184;18.680;2022-12-07T07:36:05;4.13;;;2.78;;
43457;SDS011;29046;54.184;18.680;2022-12-07T07:38:46;2.22;;;1.63;;
43457;SDS011;29046;54.184;18.680;2022-12-07T07:41:26;12.35;;;7.10;;
43457;SDS011;29046;54.184;18.680;2022-12-07T07:44:13;4.35;;;2.88;;
43457;SDS011;29046;54.184;18.680;2022-12-07T07:46:48;7.95;;;5.25;;
43457;SDS011;29046;54.184;18.680;2022-12-07T07:49:35;3.65;;;2.45;;
43457;SDS011;29046;54.184;18.680;2022-12-07T07:52:16;3.50;;;2.47;;
43457;SDS011;29046;54.184;18.680;2022-12-07T07:55:04;4.00;;;2.00;;
43457;SDS011;29046;54.184;18.680;2022-12-07T07:57:39;4.05;;;2.10;;
43457;SDS011;29046;54.184;18.680;2022-12-07T08:00:26;7.38;;;3.25;;
43457;SDS011;29046;54.184;18.680;2022-12-07T08:03:08;7.07;;;2.90;;
43457;SDS011;29046;54.184;18.680;2022-12-07T08:05:55;7.40;;;3.40;;
43457;SDS011;29046;54.184;18.680;2022-12-07T08:08:30;4.68;;;2.75;;
43457;SDS011;29046;54.184;18.680;2022-12-07T08:11:19;4.47;;;2.50;;
43457;SDS011;29046;54.184;18.680;2022-12-07T08:13:53;9.15;;;2.70;;
43457;SDS011;29046;54.184;18.680;2022-12-07T08:16:40;11.45;;;4.63;;
43457;SDS011;29046;54.184;18.680;2022-12-07T08:19:15;5.32;;;3.17;;
43457;SDS011;29046;54.184;18.680;2022-12-07T08:22:02;7.95;;;4.85;;
43457;SDS011;29046;54.184;18.680;2022-12-07T08:24:37;6.30;;;3.05;;
43457;SDS011;29046;54.184;18.680;2022-12-07T08:27:24;3.00;;;1.92;;
43457;SDS011;29046;54.184;18.680;2022-12-07T08:30:00;7.25;;;3.78;;
43457;SDS011;29046;54.184;18.680;2022-12-07T08:32:48;3.05;;;2.67;;
43457;SDS011;29046;54.184;18.680;2022-12-07T08:35:22;8.45;;;3.97;;
43457;SDS011;29046;54.184;18.680;2022-12-07T08:38:09;10.15;;;4.07;;
43457;SDS011;29046;54.184;18.680;2022-12-07T08:40:56;11.57;;;6.60;;
43457;SDS011;29046;54.184;18.680;2022-12-07T08:43:44;15.55;;;6.72;;
43457;SDS011;29046;54.184;18.680;2022-12-07T08:46:20;3.05;;;1.80;;
43457;SDS011;29046;54.184;18.680;2022-12-07T08:49:51;2.53;;;1.67;;
43457;SDS011;29046;54.184;18.680;2022-12-07T08:52:10;5.53;;;3.38;;
43457;SDS011;29046;54.184;18.680;2022-12-07T08:54:58;2.63;;;1.73;;
43457;SDS011;29046;54.184;18.680;2022-12-07T08:57:39;4.60;;;2.60;;
43457;SDS011;29046;54.184;18.680;2022-12-07T09:00:26;4.10;;;2.42;;
43457;SDS011;29046;54.184;18.680;2022-12-07T09:03:01;8.65;;;4.07;;
43457;SDS011;29046;54.184;18.680;2022-12-07T09:05:48;5.15;;;3.25;;
43457;SDS011;29046;54.184;18.680;2022-12-07T09:08:34;11.18;;;5.13;;
43457;SDS011;29046;54.184;18.680;2022-12-07T09:11:15;4.55;;;2.33;;
43457;SDS011;29046;54.184;18.680;2022-12-07T09:14:01;6.72;;;2.97;;
43457;SDS011;29046;54.184;18.680;2022-12-07T09:16:49;3.47;;;2.13;;
43457;SDS011;29046;54.184;18.680;2022-12-07T09:19:23;4.78;;;1.65;;
43457;SDS011;29046;54.184;18.680;2022-12-07T09:22:10;3.85;;;1.77;;
43457;SDS011;29046;54.184;18.680;2022-12-07T09:24:44;6.60;;;2.70;;
43457;SDS011;29046;54.184;18.680;2022-12-07T09:27:32;4.75;;;2.83;;
43457;SDS011;29046;54.184;18.680;2022-12-07T09:30:06;21.10;;;4.07;;
43457;SDS011;29046;54.184;18.680;2022-12-07T09:33:01;3.88;;;1.60;;
43457;SDS011;29046;54.184;18.680;2022-12-07T09:35:55;3.67;;;2.83;;
43457;SDS011;29046;54.184;18.680;2022-12-07T09:38:29;2.97;;;2.10;;
43457;SDS011;29046;54.184;18.680;2022-12-07T09:41:24;4.22;;;1.98;;
43457;SDS011;29046;54.184;18.680;2022-12-07T09:44:03;3.50;;;1.65;;
43457;SDS011;29046;54.184;18.680;2022-12-07T09:46:52;2.92;;;1.38;;
43457;SDS011;29046;54.184;18.680;2022-12-07T09:49:28;5.75;;;2.97;;
43457;SDS011;29046;54.184;18.680;2022-12-07T09:52:19;3.83;;;1.92;;
43457;SDS011;29046;54.184;18.680;2022-12-07T09:55:11;3.65;;;2.40;;
43457;SDS011;29046;54.184;18.680;2022-12-07T09:57:58;8.48;;;4.80;;
43457;SDS011;29046;54.184;18.680;2022-12-07T10:00:33;6.15;;;2.97;;
43457;SDS011;29046;54.184;18.680;2022-12-07T10:03:20;4.20;;;2.72;;
43457;SDS011;29046;54.184;18.680;2022-12-07T10:05:55;2.28;;;1.50;;
43457;SDS011;29046;54.184;18.680;2022-12-07T10:08:43;6.03;;;2.78;;
43457;SDS011;29046;54.184;18.680;2022-12-07T10:11:23;5.13;;;3.22;;
43457;SDS011;29046;54.184;18.680;2022-12-07T10:14:11;8.63;;;6.25;;
43457;SDS011;29046;54.184;18.680;2022-12-07T10:16:47;6.93;;;4.22;;
43457;SDS011;29046;54.184;18.680;2022-12-07T10:19:34;5.53;;;3.83;;
43457;SDS011;29046;54.184;18.680;2022-12-07T10:22:10;4.43;;;3.03;;
43457;SDS011;29046;54.184;18.680;2022-12-07T10:25:08;3.50;;;2.60;;
43457;SDS011;29046;54.184;18.680;2022-12-07T10:27:59;3.40;;;2.30;;
43457;SDS011;29046;54.184;18.680;2022-12-07T10:33:36;4.82;;;2.53;;
43457;SDS011;29046;54.184;18.680;2022-12-07T10:36:34;2.70;;;1.98;;
43457;SDS011;29046;54.184;18.680;2022-12-07T10:39:15;3.08;;;1.73;;
43457;SDS011;29046;54.184;18.680;2022-12-07T10:44:49;11.35;;;5.20;;
43457;SDS011;29046;54.184;18.680;2022-12-07T11:01:58;3.90;;;2.42;;
43457;SDS011;29046;54.184;18.680;2022-12-07T11:07:51;5.47;;;3.17;;
43457;SDS011;29046;54.184;18.680;2022-12-07T11:10:41;6.75;;;3.00;;
43457;SDS011;29046;54.184;18.680;2022-12-07T11:13:56;4.57;;;2.45;;
43457;SDS011;29046;54.184;18.680;2022-12-07T11:16:56;8.10;;;3.63;;
43457;SDS011;29046;54.184;18.680;2022-12-07T11:22:37;3.00;;;1.98;;
43457;SDS011;29046;54.184;18.680;2022-12-07T11:25:20;9.10;;;4.82;;
43457;SDS011;29046;54.184;18.680;2022-12-07T11:31:12;3.33;;;2.03;;
43457;SDS011;29046;54.184;18.680;2022-12-07T11:34:10;8.23;;;3.15;;
43457;SDS011;29046;54.184;18.680;2022-12-07T11:36:48;4.53;;;1.65;;
43457;SDS011;29046;54.184;18.680;2022-12-07T11:39:38;6.55;;;4.03;;
43457;SDS011;29046;54.184;18.680;2022-12-07T11:42:19;3.23;;;1.90;;
43457;SDS011;29046;54.184;18.680;2022-12-07T11:48:11;3.75;;;2.30;;
43457;SDS011;29046;54.184;18.680;2022-12-07T11:51:05;7.57;;;4.00;;
43457;SDS011;29046;54.184;18.680;2022-12-07T11:53:55;4.72;;;2.97;;
43457;SDS011;29046;54.184;18.680;2022-12-07T11:56:45;8.38;;;4.72;;
43457;SDS011;29046;54.184;18.680;2022-12-07T12:02:16;6.32;;;4.00;;
43457;SDS011;29046;54.184;18.680;2022-12-07T12:05:17;6.00;;;3.08;;
43457;SDS011;29046;54.184;18.680;2022-12-07T12:23:12;9.25;;;3.78;;
43457;SDS011;29046;54.184;18.680;2022-12-07T12:25:58;5.25;;;2.95;;
43457;SDS011;29046;54.184;18.680;2022-12-07T12:31:40;8.27;;;4.97;;
43457;SDS011;29046;54.184;18.680;2022-12-07T12:42:57;9.93;;;4.28;;
43457;SDS011;29046;54.184;18.680;2022-12-07T12:45:37;16.05;;;5.38;;
43457;SDS011;29046;54.184;18.680;2022-12-07T12:48:28;4.93;;;3.15;;
43457;SDS011;29046;54.184;18.680;2022-12-07T12:54:20;12.27;;;6.72;;
43457;SDS011;29046;54.184;18.680;2022-12-07T12:57:27;7.60;;;4.03;;
43457;SDS011;29046;54.184;18.680;2022-12-07T13:02:55;11.20;;;4.15;;
43457;SDS011;29046;54.184;18.680;2022-12-07T13:05:45;23.35;;;10.40;;
43457;SDS011;29046;54.184;18.680;2022-12-07T13:08:32;10.40;;;4.97;;
43457;SDS011;29046;54.184;18.680;2022-12-07T13:11:17;9.68;;;4.45;;
43457;SDS011;29046;54.184;18.680;2022-12-07T13:17:08;5.10;;;2.47;;
43457;SDS011;29046;54.184;18.680;2022-12-07T13:19:56;11.75;;;6.18;;
43457;SDS011;29046;54.184;18.680;2022-12-07T13:28:07;5.55;;;3.10;;
43457;SDS011;29046;54.184;18.680;2022-12-07T13:33:43;10.43;;;3.05;;
43457;SDS011;29046;54.184;18.680;2022-12-07T13:36:36;10.13;;;3.63;;
43457;SDS011;29046;54.184;18.680;2022-12-07T13:42:08;16.00;;;5.78;;
43457;SDS011;29046;54.184;18.680;2022-12-07T13:44:50;8.00;;;2.25;;
43457;SDS011;29046;54.184;18.680;2022-12-07T13:47:47;6.43;;;3.78;;
43457;SDS011;29046;54.184;18.680;2022-12-07T13:50:25;12.23;;;5.43;;
43457;SDS011;29046;54.184;18.680;2022-12-07T13:53:20;13.25;;;7.78;;
43457;SDS011;29046;54.184;18.680;2022-12-07T13:55:54;11.95;;;5.47;;
43457;SDS011;29046;54.184;18.680;2022-12-07T13:58:41;7.30;;;3.13;;
43457;SDS011;29046;54.184;18.680;2022-12-07T14:01:24;6.45;;;3.75;;
43457;SDS011;29046;54.184;18.680;2022-12-07T14:06:51;6.38;;;2.55;;
43457;SDS011;29046;54.184;18.680;2022-12-07T14:09:38;16.98;;;7.20;;
43457;SDS011;29046;54.184;18.680;2022-12-07T14:12:12;7.07;;;3.83;;
43457;SDS011;29046;54.184;18.680;2022-12-07T14:15:15;18.90;;;8.65;;
43457;SDS011;29046;54.184;18.680;2022-12-07T14:21:14;14.02;;;7.75;;
43457;SDS011;29046;54.184;18.680;2022-12-07T14:26:47;10.38;;;4.53;;
43457;SDS011;29046;54.184;18.680;2022-12-07T14:29:36;10.73;;;4.88;;
43457;SDS011;29046;54.184;18.680;2022-12-07T14:32:29;13.75;;;5.72;;
43457;SDS011;29046;54.184;18.680;2022-12-07T14:35:17;7.70;;;3.72;;
43457;SDS011;29046;54.184;18.680;2022-12-07T14:37:51;13.80;;;4.88;;
43457;SDS011;29046;54.184;18.680;2022-12-07T14:40:39;13.43;;;4.05;;
43457;SDS011;29046;54.184;18.680;2022-12-07T14:43:12;7.47;;;4.15;;
43457;SDS011;29046;54.184;18.680;2022-12-07T14:46:00;7.00;;;3.22;;
43457;SDS011;29046;54.184;18.680;2022-12-07T14:48:35;4.35;;;2.58;;
43457;SDS011;29046;54.184;18.680;2022-12-07T14:51:43;4.70;;;2.42;;
43457;SDS011;29046;54.184;18.680;2022-12-07T14:54:39;6.00;;;3.33;;
43457;SDS011;29046;54.184;18.680;2022-12-07T14:57:34;2.88;;;2.33;;
43457;SDS011;29046;54.184;18.680;2022-12-07T15:00:29;4.00;;;2.75;;
43457;SDS011;29046;54.184;18.680;2022-12-07T15:03:04;7.28;;;3.53;;
43457;SDS011;29046;54.184;18.680;2022-12-07T15:05:58;7.95;;;3.40;;
43457;SDS011;29046;54.184;18.680;2022-12-07T15:08:53;9.15;;;4.03;;
43457;SDS011;29046;54.184;18.680;2022-12-07T15:11:28;5.65;;;3.28;;
43457;SDS011;29046;54.184;18.680;2022-12-07T15:14:23;5.57;;;2.58;;
43457;SDS011;29046;54.184;18.680;2022-12-07T15:16:56;7.30;;;3.70;;
43457;SDS011;29046;54.184;18.680;2022-12-07T15:20:05;6.63;;;2.28;;
43457;SDS011;29046;54.184;18.680;2022-12-07T15:23:00;4.00;;;2.13;;
43457;SDS011;29046;54.184;18.680;2022-12-07T15:25:33;9.55;;;4.43;;
43457;SDS011;29046;54.184;18.680;2022-12-07T15:28:21;4.82;;;2.25;;
43457;SDS011;29046;54.184;18.680;2022-12-07T15:30:54;2.83;;;1.90;;
43457;SDS011;29046;54.184;18.680;2022-12-07T15:34:02;6.75;;;3.13;;
43457;SDS011;29046;54.184;18.680;2022-12-07T15:36:36;4.07;;;2.17;;
43457;SDS011;29046;54.184;18.680;2022-12-07T15:39:31;5.10;;;2.85;;
43457;SDS011;29046;54.184;18.680;2022-12-07T15:42:04;6.40;;;2.92;;
43457;SDS011;29046;54.184;18.680;2022-12-07T15:44:51;11.90;;;3.92;;
43457;SDS011;29046;54.184;18.680;2022-12-07T15:47:39;4.35;;;2.40;;
43457;SDS011;29046;54.184;18.680;2022-12-07T15:50:46;5.07;;;2.28;;
43457;SDS011;29046;54.184;18.680;2022-12-07T15:53:20;8.82;;;4.43;;
43457;SDS011;29046;54.184;18.680;2022-12-07T15:56:08;5.82;;;3.33;;
43457;SDS011;29046;54.184;18.680;2022-12-07T15:58:42;6.88;;;4.03;;
43457;SDS011;29046;54.184;18.680;2022-12-07T16:01:30;6.15;;;3.25;;
43457;SDS011;29046;54.184;18.680;2022-12-07T16:04:03;4.97;;;2.53;;
43457;SDS011;29046;54.184;18.680;2022-12-07T16:06:51;6.53;;;2.63;;
43457;SDS011;29046;54.184;18.680;2022-12-07T16:09:24;9.88;;;4.18;;
43457;SDS011;29046;54.184;18.680;2022-12-07T16:12:12;10.90;;;4.45;;
43457;SDS011;29046;54.184;18.680;2022-12-07T16:14:46;6.55;;;4.25;;
43457;SDS011;29046;54.184;18.680;2022-12-07T16:17:34;11.18;;;4.45;;
43457;SDS011;29046;54.184;18.680;2022-12-07T16:20:07;7.38;;;3.17;;
43457;SDS011;29046;54.184;18.680;2022-12-07T16:23:02;4.78;;;2.50;;
43457;SDS011;29046;54.184;18.680;2022-12-07T16:26:03;3.83;;;1.88;;
43457;SDS011;29046;54.184;18.680;2022-12-07T16:28:45;11.20;;;3.75;;
43457;SDS011;29046;54.184;18.680;2022-12-07T16:31:40;8.35;;;4.88;;
43457;SDS011;29046;54.184;18.680;2022-12-07T16:34:14;2.45;;;1.27;;
43457;SDS011;29046;54.184;18.680;2022-12-07T16:37:01;21.05;;;7.15;;
43457;SDS011;29046;54.184;18.680;2022-12-07T16:39:42;3.80;;;2.42;;
43457;SDS011;29046;54.184;18.680;2022-12-07T16:42:22;8.93;;;3.63;;
43457;SDS011;29046;54.184;18.680;2022-12-07T16:45:03;13.60;;;5.28;;
43457;SDS011;29046;54.184;18.680;2022-12-07T16:47:49;15.25;;;3.40;;
43457;SDS011;29046;54.184;18.680;2022-12-07T16:50:30;2.45;;;1.50;;
43457;SDS011;29046;54.184;18.680;2022-12-07T16:53:24;19.77;;;6.43;;
43457;SDS011;29046;54.184;18.680;2022-12-07T16:56:14;22.38;;;7.30;;
43457;SDS011;29046;54.184;18.680;2022-12-07T17:01:28;2.13;;;1.02;;
43457;SDS011;29046;54.184;18.680;2022-12-07T17:04:03;4.38;;;2.85;;
43457;SDS011;29046;54.184;18.680;2022-12-07T17:06:51;2.60;;;1.50;;
43457;SDS011;29046;54.184;18.680;2022-12-07T17:09:25;11.18;;;5.78;;
43457;SDS011;29046;54.184;18.680;2022-12-07T17:12:13;5.53;;;2.22;;
43457;SDS011;29046;54.184;18.680;2022-12-07T17:14:47;11.43;;;4.60;;
43457;SDS011;29046;54.184;18.680;2022-12-07T17:17:54;6.28;;;2.55;;
43457;SDS011;29046;54.184;18.680;2022-12-07T17:20:29;1.15;;;0.75;;
43457;SDS011;29046;54.184;18.680;2022-12-07T17:23:17;5.68;;;2.83;;
43457;SDS011;29046;54.184;18.680;2022-12-07T17:25:51;4.15;;;1.73;;
43457;SDS011;29046;54.184;18.680;2022-12-07T17:28:39;2.90;;;1.52;;
43457;SDS011;29046;54.184;18.680;2022-12-07T17:31:14;2.25;;;0.93;;
43457;SDS011;29046;54.184;18.680;2022-12-07T17:34:03;4.53;;;1.40;;
43457;SDS011;29046;54.184;18.680;2022-12-07T17:36:44;2.80;;;1.55;;
43457;SDS011;29046;54.184;18.680;2022-12-07T17:39:32;1.83;;;1.33;;
43457;SDS011;29046;54.184;18.680;2022-12-07T17:42:12;2.90;;;1.30;;
43457;SDS011;29046;54.184;18.680;2022-12-07T17:45:19;1.80;;;1.25;;
43457;SDS011;29046;54.184;18.680;2022-12-07T17:47:53;2.10;;;1.00;;
43457;SDS011;29046;54.184;18.680;2022-12-07T17:50:48;1.83;;;0.93;;
43457;SDS011;29046;54.184;18.680;2022-12-07T17:53:48;2.50;;;1.13;;
43457;SDS011;29046;54.184;18.680;2022-12-07T17:56:39;2.35;;;0.82;;
43457;SDS011;29046;54.184;18.680;2022-12-07T17:59:13;1.95;;;1.05;;
43457;SDS011;29046;54.184;18.680;2022-12-07T18:02:08;4.72;;;1.40;;
43457;SDS011;29046;54.184;18.680;2022-12-07T18:05:03;3.17;;;1.38;;
43457;SDS011;29046;54.184;18.680;2022-12-07T18:07:37;1.27;;;0.82;;
43457;SDS011;29046;54.184;18.680;2022-12-07T18:10:32;1.58;;;0.93;;